Time;durP1;ratioP1;P1;durP2;ratioP2;P2;SDS_P1;SDS_P2;PMS_P1;PMS_P2;Temp;Humidity;BMP_temperature;BMP_pressure;BME280_temperature;BME280_humidity;BME280_pressure;Samples;Min_cycle;Max_cycle;Signal;HPM_P1;HPM_P2
2021/03/13 00:00:33;;;;;;;2.63;1.30;;;6.70;93.40;;;;;;5032275;28;20036;-77
2021/03/13 00:02:59;;;;;;;4.87;1.33;;;6.70;93.30;;;;;;5032755;28;20772;-77
2021/03/13 00:05:26;;;;;;;2.33;1.20;;;6.70;92.90;;;;;;5032639;28;20101;-77
2021/03/13 00:07:51;;;;;;;2.33;1.30;;;6.70;93.20;;;;;;5032641;28;20029;-77
2021/03/13 00:10:18;;;;;;;2.87;1.30;;;6.70;93.10;;;;;;5014826;28;20024;-77
2021/03/13 00:12:44;;;;;;;4.13;1.30;;;6.70;93.00;;;;;;5032344;28;20534;-77
2021/03/13 00:15:14;;;;;;;2.40;1.17;;;6.80;92.70;;;;;;5032206;28;20125;-77
2021/03/13 00:17:40;;;;;;;2.20;1.20;;;6.90;92.40;;;;;;5032288;28;20382;-77
2021/03/13 00:20:07;;;;;;;1.67;1.10;;;6.90;92.70;;;;;;5014919;28;20417;-77
2021/03/13 00:22:32;;;;;;;3.30;1.10;;;6.90;92.30;;;;;;5031992;28;20117;-77
2021/03/13 00:24:58;;;;;;;2.90;1.40;;;7.00;92.10;;;;;;5032184;28;20096;-77
2021/03/13 00:27:24;;;;;;;4.20;1.40;;;7.00;91.90;;;;;;5032155;28;20041;-77
2021/03/13 00:29:50;;;;;;;3.27;1.20;;;7.10;91.70;;;;;;5032232;28;20524;-77
2021/03/13 00:32:15;;;;;;;2.53;1.30;;;7.00;92.00;;;;;;5032066;28;20359;-78
2021/03/13 00:34:41;;;;;;;3.23;1.10;;;7.20;91.10;;;;;;5032208;28;20021;-77
2021/03/13 00:37:06;;;;;;;2.93;1.20;;;7.20;91.10;;;;;;5031974;28;20374;-77
2021/03/13 00:39:32;;;;;;;4.37;1.20;;;7.30;91.10;;;;;;5013982;28;20026;-77
2021/03/13 00:41:58;;;;;;;4.23;1.20;;;7.30;90.90;;;;;;5032052;28;20033;-77
2021/03/13 00:44:23;;;;;;;2.00;1.10;;;7.40;91.00;;;;;;5014224;28;20458;-78
2021/03/13 00:46:49;;;;;;;3.47;1.03;;;7.40;90.80;;;;;;5031693;28;20486;-77
2021/03/13 00:49:14;;;;;;;4.40;1.50;;;7.50;90.80;;;;;;5031686;28;20136;-77
2021/03/13 00:51:40;;;;;;;4.07;1.70;;;7.50;90.90;;;;;;5013875;28;20032;-77
2021/03/13 00:54:05;;;;;;;3.50;1.20;;;7.60;90.50;;;;;;5014241;28;20670;-77
2021/03/13 00:56:31;;;;;;;4.00;1.10;;;7.60;90.50;;;;;;5031863;28;20111;-77
2021/03/13 00:58:56;;;;;;;2.70;1.27;;;7.50;90.80;;;;;;5031361;28;20043;-77
2021/03/13 01:01:22;;;;;;;3.20;1.40;;;7.60;90.70;;;;;;5013774;28;20033;-77
2021/03/13 01:03:48;;;;;;;2.20;1.13;;;7.50;90.90;;;;;;5031545;28;20116;-77
2021/03/13 01:06:13;;;;;;;3.83;1.00;;;7.50;90.70;;;;;;5013560;28;20079;-77
2021/03/13 01:08:39;;;;;;;1.30;0.90;;;7.50;90.90;;;;;;5031164;28;20034;-77
2021/03/13 01:11:04;;;;;;;2.37;1.20;;;7.40;90.70;;;;;;5013410;28;20185;-77
2021/03/13 01:13:30;;;;;;;2.90;1.10;;;7.50;90.90;;;;;;5031117;28;20386;-77
2021/03/13 01:15:56;;;;;;;4.30;1.30;;;7.50;90.70;;;;;;5031148;28;20065;-76
2021/03/13 01:18:21;;;;;;;4.47;1.20;;;7.40;91.10;;;;;;5013696;28;20163;-77
2021/03/13 01:20:49;;;;;;;2.33;1.17;;;7.40;91.00;;;;;;5031549;28;20025;-77
2021/03/13 01:23:15;;;;;;;3.60;1.40;;;7.30;91.30;;;;;;5031286;28;20095;-77
2021/03/13 01:25:41;;;;;;;2.30;1.17;;;7.40;91.00;;;;;;5013024;28;20482;-77
2021/03/13 01:28:06;;;;;;;1.70;1.20;;;7.40;90.50;;;;;;5030731;28;20501;-77
2021/03/13 01:30:32;;;;;;;3.20;1.20;;;7.40;91.10;;;;;;5030825;28;20095;-77
2021/03/13 01:32:58;;;;;;;4.20;1.30;;;7.50;90.30;;;;;;5030911;28;20382;-77
2021/03/13 01:35:25;;;;;;;2.43;1.20;;;7.50;90.40;;;;;;5031184;28;20100;-77
2021/03/13 01:37:51;;;;;;;3.07;1.20;;;7.40;90.40;;;;;;5030843;28;20075;-78
2021/03/13 01:40:17;;;;;;;4.60;1.20;;;7.30;91.00;;;;;;5030913;28;20120;-77
2021/03/13 01:42:45;;;;;;;4.20;1.30;;;7.30;90.70;;;;;;5031060;28;20029;-77
2021/03/13 01:45:13;;;;;;;4.03;1.33;;;7.30;91.10;;;;;;5013092;28;20849;-77
2021/03/13 01:47:38;;;;;;;1.70;1.20;;;7.30;90.90;;;;;;5013197;28;20074;-77
2021/03/13 01:50:07;;;;;;;1.60;1.00;;;7.20;91.20;;;;;;5012887;28;20095;-77
2021/03/13 01:52:33;;;;;;;4.37;1.33;;;7.20;91.60;;;;;;5030731;28;20029;-77
2021/03/13 01:55:00;;;;;;;3.67;1.27;;;7.20;91.50;;;;;;5013214;28;20092;-77
2021/03/13 01:57:27;;;;;;;3.47;1.20;;;7.20;91.20;;;;;;5012835;28;20033;-78
2021/03/13 01:59:52;;;;;;;2.73;1.33;;;7.30;91.40;;;;;;5012905;28;20148;-77
2021/03/13 02:02:18;;;;;;;2.50;1.23;;;7.20;91.70;;;;;;5030443;28;20116;-77
2021/03/13 02:04:44;;;;;;;5.57;1.30;;;7.20;92.10;;;;;;5030361;28;20036;-77
2021/03/13 02:07:26;;;;;;;2.50;1.20;;;7.20;92.70;;;;;;5030284;28;20040;-77
2021/03/13 02:10:01;;;;;;;2.77;1.20;;;7.20;93.00;;;;;;5012538;28;20030;-77
2021/03/13 02:12:39;;;;;;;2.47;1.10;;;7.30;93.20;;;;;;5012445;28;20113;-77
2021/03/13 02:15:25;;;;;;;3.57;1.50;;;7.40;93.30;;;;;;5029985;28;20038;-77
2021/03/13 02:18:29;;;;;;;3.73;1.20;;;7.30;93.60;;;;;;5029842;28;20022;-77
2021/03/13 02:21:00;;;;;;;3.37;1.30;;;7.30;93.60;;;;;;5029780;28;20038;-77
2021/03/13 02:23:29;;;;;;;4.23;1.80;;;7.30;94.60;;;;;;5028329;28;20029;-77
2021/03/13 02:26:04;;;;;;;3.57;1.27;;;7.30;94.50;;;;;;5028572;28;20025;-77
2021/03/13 02:28:47;;;;;;;3.28;1.15;;;7.30;95.10;;;;;;5030025;28;20495;-77
2021/03/13 02:31:15;;;;;;;2.60;1.10;;;7.30;95.60;;;;;;5030060;28;20037;-77
2021/03/13 02:33:43;;;;;;;2.97;1.10;;;7.20;95.90;;;;;;5029960;28;20052;-77
2021/03/13 02:36:15;;;;;;;2.83;1.17;;;7.20;96.40;;;;;;5030013;28;20032;-77
2021/03/13 02:38:49;;;;;;;1.60;1.20;;;7.20;96.90;;;;;;5029807;28;20025;-77
2021/03/13 02:41:21;;;;;;;1.83;1.10;;;7.10;97.30;;;;;;5012168;28;20096;-77
2021/03/13 02:43:50;;;;;;;5.17;1.30;;;6.90;98.20;;;;;;5029991;28;20029;-78
2021/03/13 02:46:18;;;;;;;3.10;1.23;;;6.90;98.60;;;;;;5029799;28;20052;-77
2021/03/13 02:48:46;;;;;;;2.17;1.20;;;6.90;99.10;;;;;;5030039;28;20037;-77
2021/03/13 02:51:15;;;;;;;4.43;1.20;;;6.90;99.50;;;;;;5029868;28;20048;-77
2021/03/13 02:53:42;;;;;;;2.90;1.27;;;6.90;99.80;;;;;;5029658;28;20029;-77
2021/03/13 02:56:10;;;;;;;4.27;1.13;;;6.80;99.90;;;;;;5012178;28;20029;-77
2021/03/13 02:58:36;;;;;;;2.80;1.40;;;6.80;99.90;;;;;;5011949;28;20382;-77
2021/03/13 03:01:02;;;;;;;1.97;1.30;;;6.80;99.90;;;;;;5029729;28;20394;-77
2021/03/13 03:03:29;;;;;;;3.10;1.23;;;6.70;99.90;;;;;;5029545;28;20078;-77
2021/03/13 03:05:55;;;;;;;3.17;1.10;;;6.70;99.90;;;;;;5029766;28;20116;-77
2021/03/13 03:08:22;;;;;;;2.20;1.20;;;6.60;99.90;;;;;;5029527;28;20034;-77
2021/03/13 03:10:49;;;;;;;2.07;1.17;;;6.50;99.90;;;;;;5029579;28;20034;-77
2021/03/13 03:13:16;;;;;;;3.73;1.20;;;6.40;99.90;;;;;;5029650;28;20072;-77
2021/03/13 03:15:42;;;;;;;2.17;1.23;;;6.40;99.90;;;;;;5008413;28;20100;-77
2021/03/13 03:18:13;;;;;;;1.73;1.30;;;6.40;99.90;;;;;;5025097;28;20021;-77
2021/03/13 03:20:41;;;;;;;3.13;1.40;;;6.40;99.90;;;;;;5029626;28;20071;-78
2021/03/13 03:23:07;;;;;;;4.60;1.47;;;6.30;99.90;;;;;;5029540;28;20079;-77
2021/03/13 03:25:33;;;;;;;1.50;1.10;;;6.30;99.90;;;;;;5029673;28;20367;-77
2021/03/13 03:27:59;;;;;;;1.43;0.97;;;6.40;99.90;;;;;;5029668;28;20030;-77
2021/03/13 03:30:31;;;;;;;2.17;1.20;;;6.50;99.90;;;;;;5011625;28;20069;-77
2021/03/13 03:33:01;;;;;;;3.40;1.83;;;6.40;99.90;;;;;;5029435;28;20116;-77
2021/03/13 03:35:27;;;;;;;1.83;1.10;;;6.30;99.90;;;;;;5029623;28;20040;-77
2021/03/13 03:37:58;;;;;;;6.20;1.40;;;6.30;99.90;;;;;;5033101;28;20029;-77
2021/03/13 03:40:26;;;;;;;1.90;1.20;;;6.20;99.90;;;;;;5015335;28;20022;-77
2021/03/13 03:43:07;;;;;;;3.37;1.30;;;6.20;99.90;;;;;;5033145;28;20498;-77
2021/03/13 03:45:34;;;;;;;3.57;1.53;;;6.20;99.90;;;;;;5033203;28;20057;-77
2021/03/13 03:48:08;;;;;;;2.60;1.30;;;6.10;99.90;;;;;;5032734;28;20037;-77
2021/03/13 03:50:35;;;;;;;3.77;1.63;;;6.00;99.90;;;;;;5032689;28;20040;-77
2021/03/13 03:53:01;;;;;;;1.67;1.10;;;5.90;99.90;;;;;;5015044;28;20030;-78
2021/03/13 03:55:29;;;;;;;4.20;1.20;;;6.00;99.90;;;;;;5015076;28;20483;-77
2021/03/13 03:57:57;;;;;;;4.53;1.17;;;6.10;99.90;;;;;;5032769;28;20411;-77
2021/03/13 04:00:23;;;;;;;6.37;1.23;;;6.10;99.90;;;;;;5032631;28;20378;-77
2021/03/13 04:02:50;;;;;;;4.70;1.37;;;6.10;99.90;;;;;;5032529;28;20034;-77
2021/03/13 04:05:17;;;;;;;2.77;1.10;;;6.10;99.90;;;;;;5014916;28;20029;-77
2021/03/13 04:07:43;;;;;;;2.73;1.20;;;6.20;99.90;;;;;;5032471;28;20117;-77
2021/03/13 04:10:10;;;;;;;4.67;1.10;;;6.20;99.90;;;;;;5032311;28;20125;-77
2021/03/13 04:12:38;;;;;;;3.90;1.30;;;6.10;99.90;;;;;;5014545;28;20765;-77
2021/03/13 04:15:08;;;;;;;5.13;1.10;;;6.00;99.90;;;;;;5032110;28;20045;-77
2021/03/13 04:17:35;;;;;;;3.60;1.07;;;6.10;99.90;;;;;;5014672;28;20017;-77
2021/03/13 04:20:00;;;;;;;1.93;1.13;;;6.20;99.90;;;;;;5032554;28;20108;-77
2021/03/13 04:22:27;;;;;;;3.37;1.13;;;6.20;99.90;;;;;;5030991;28;20104;-77
2021/03/13 04:24:53;;;;;;;5.83;1.40;;;6.20;99.90;;;;;;5031961;28;20038;-77
2021/03/13 04:27:20;;;;;;;1.57;1.00;;;6.20;99.90;;;;;;5032041;28;20037;-77
2021/03/13 04:29:47;;;;;;;2.50;1.03;;;6.20;99.90;;;;;;5032194;28;20021;-77
2021/03/13 04:32:15;;;;;;;2.87;1.40;;;6.20;99.90;;;;;;5014158;28;20033;-77
2021/03/13 04:34:43;;;;;;;1.37;1.00;;;6.20;99.90;;;;;;5014423;28;20033;-77
2021/03/13 04:37:09;;;;;;;4.80;1.53;;;6.10;99.90;;;;;;5032099;28;20025;-77
2021/03/13 04:39:36;;;;;;;1.80;1.00;;;6.20;99.90;;;;;;5031880;28;20025;-77
2021/03/13 04:42:03;;;;;;;3.03;1.13;;;6.00;99.90;;;;;;5031956;28;20390;-77
2021/03/13 04:44:29;;;;;;;2.93;1.07;;;6.10;99.90;;;;;;5031883;28;20025;-77
2021/03/13 04:46:55;;;;;;;1.80;1.03;;;6.10;99.90;;;;;;5031366;28;20324;-77
2021/03/13 04:49:22;;;;;;;3.23;1.03;;;6.10;99.90;;;;;;5031744;28;20034;-77
2021/03/13 04:51:48;;;;;;;3.10;1.00;;;6.10;99.90;;;;;;5030417;28;20120;-78
2021/03/13 04:54:13;;;;;;;4.77;1.20;;;6.10;99.90;;;;;;5031841;28;20105;-77
2021/03/13 04:56:40;;;;;;;2.60;1.40;;;6.20;99.90;;;;;;5031681;28;20064;-77
2021/03/13 04:59:06;;;;;;;3.53;1.23;;;6.10;99.90;;;;;;5014275;28;20021;-78
2021/03/13 05:01:31;;;;;;;6.53;1.50;;;6.10;99.90;;;;;;5013958;28;20021;-78
2021/03/13 05:03:57;;;;;;;1.43;0.90;;;6.10;99.90;;;;;;5013312;28;20109;-77
2021/03/13 05:06:23;;;;;;;2.73;1.30;;;6.10;99.90;;;;;;5031248;28;20041;-78
2021/03/13 05:08:48;;;;;;;1.30;0.90;;;6.00;99.90;;;;;;5031331;28;20025;-78
2021/03/13 05:11:14;;;;;;;3.13;1.00;;;6.10;99.90;;;;;;5013273;28;20053;-77
2021/03/13 05:13:40;;;;;;;0.87;0.80;;;6.30;99.90;;;;;;5031360;28;20030;-78
2021/03/13 05:16:06;;;;;;;3.63;1.10;;;6.30;99.90;;;;;;5030898;28;20099;-77
2021/03/13 05:18:31;;;;;;;4.07;1.00;;;6.40;99.90;;;;;;5031055;28;20470;-77
2021/03/13 05:20:57;;;;;;;1.30;1.00;;;6.40;99.90;;;;;;5031124;28;20025;-78
2021/03/13 05:23:22;;;;;;;1.40;0.90;;;6.40;99.90;;;;;;5021944;28;20025;-77
2021/03/13 05:25:48;;;;;;;3.43;1.20;;;6.40;99.90;;;;;;5030979;28;20439;-77
2021/03/13 05:28:13;;;;;;;2.93;1.20;;;6.30;99.90;;;;;;5030974;28;20053;-77
2021/03/13 05:30:40;;;;;;;1.90;1.20;;;6.40;99.90;;;;;;5030768;28;20095;-78
2021/03/13 05:33:06;;;;;;;4.40;1.20;;;6.30;99.90;;;;;;5030702;28;20105;-78
2021/03/13 05:35:32;;;;;;;2.13;1.00;;;6.30;99.90;;;;;;5030716;28;20394;-78
2021/03/13 05:37:57;;;;;;;5.67;1.10;;;6.20;99.90;;;;;;5030723;28;20101;-78
2021/03/13 05:40:23;;;;;;;2.03;1.00;;;6.20;99.90;;;;;;5030918;28;20030;-77
2021/03/13 05:42:50;;;;;;;2.80;1.10;;;6.20;99.90;;;;;;5030769;28;20025;-78
2021/03/13 05:45:16;;;;;;;2.23;0.97;;;6.20;99.90;;;;;;5030700;28;20029;-78
2021/03/13 05:47:43;;;;;;;2.63;1.23;;;6.20;99.90;;;;;;5030714;28;20052;-78
2021/03/13 05:50:16;;;;;;;1.60;1.10;;;6.10;99.90;;;;;;5012874;28;20060;-77
2021/03/13 05:52:46;;;;;;;2.50;0.90;;;6.10;99.90;;;;;;5030605;28;20472;-77
2021/03/13 05:55:12;;;;;;;1.93;0.97;;;6.10;99.90;;;;;;5012964;28;20021;-78
2021/03/13 05:57:38;;;;;;;4.17;1.40;;;6.10;99.90;;;;;;5030334;28;20045;-77
2021/03/13 06:00:05;;;;;;;2.20;0.80;;;6.20;99.90;;;;;;5029945;28;20025;-78
2021/03/13 06:02:32;;;;;;;2.97;1.00;;;6.10;99.90;;;;;;5030323;28;20052;-77
2021/03/13 06:04:58;;;;;;;2.67;1.10;;;6.20;99.90;;;;;;5030465;28;20029;-77
2021/03/13 06:07:25;;;;;;;3.33;0.90;;;6.10;99.90;;;;;;5030416;28;20035;-77
2021/03/13 06:09:55;;;;;;;2.60;0.83;;;6.10;99.90;;;;;;5012516;28;20546;-78
2021/03/13 06:12:22;;;;;;;2.30;1.03;;;6.10;99.90;;;;;;5030236;28;20506;-78
2021/03/13 06:14:53;;;;;;;1.57;1.03;;;6.20;99.90;;;;;;5029688;28;20053;-77
2021/03/13 06:17:21;;;;;;;1.23;1.10;;;6.20;99.90;;;;;;5012239;28;20025;-77
2021/03/13 06:19:54;;;;;;;1.60;1.00;;;6.30;99.90;;;;;;5029026;28;20013;-77
2021/03/13 06:22:42;;;;;;;4.60;1.53;;;6.30;99.90;;;;;;5026945;28;20108;-77
2021/03/13 06:25:15;;;;;;;2.37;1.00;;;6.30;99.90;;;;;;5030240;28;20068;-75
2021/03/13 06:28:02;;;;;;;3.13;1.10;;;6.30;99.90;;;;;;5032624;28;20117;-75
2021/03/13 06:30:35;;;;;;;2.10;1.23;;;6.50;99.90;;;;;;5031123;28;20059;-76
2021/03/13 06:33:22;;;;;;;2.23;0.97;;;6.60;99.90;;;;;;5031247;28;20032;-75
2021/03/13 06:35:48;;;;;;;3.07;1.47;;;6.60;99.90;;;;;;5032668;28;20021;-76
2021/03/13 06:38:16;;;;;;;2.37;1.00;;;6.70;99.90;;;;;;5032432;28;20021;-75
2021/03/13 06:40:42;;;;;;;3.50;1.10;;;6.70;99.90;;;;;;5014399;28;20025;-75
2021/03/13 06:43:21;;;;;;;3.70;1.13;;;6.80;99.90;;;;;;5032057;28;20029;-75
2021/03/13 06:46:07;;;;;;;1.80;1.00;;;6.80;99.90;;;;;;5032189;28;20033;-75
2021/03/13 06:48:53;;;;;;;2.67;1.10;;;6.80;99.90;;;;;;5014411;28;20029;-75
2021/03/13 06:51:32;;;;;;;2.97;1.00;;;6.80;99.90;;;;;;5012770;28;20039;-74
2021/03/13 06:54:13;;;;;;;3.17;1.13;;;6.80;99.90;;;;;;5031622;28;20018;-74
2021/03/13 06:56:59;;;;;;;2.20;1.10;;;6.80;99.90;;;;;;5028566;28;20156;-74
2021/03/13 06:59:36;;;;;;;1.87;1.20;;;6.80;99.90;;;;;;5021469;28;20105;-74
2021/03/13 07:02:07;;;;;;;4.07;1.00;;;6.80;99.90;;;;;;5008909;28;20120;-74
2021/03/13 07:04:43;;;;;;;1.93;1.10;;;6.80;99.90;;;;;;5008992;28;20033;-74
2021/03/13 07:07:12;;;;;;;1.97;0.90;;;7.00;99.90;;;;;;5028895;28;20021;-74
2021/03/13 07:09:47;;;;;;;1.43;1.07;;;7.10;99.90;;;;;;5027450;28;20029;-74
2021/03/13 07:12:40;;;;;;;2.80;1.20;;;7.20;99.90;;;;;;5035697;28;20036;-74
2021/03/13 07:15:16;;;;;;;3.60;1.27;;;7.40;99.90;;;;;;5016151;28;20045;-74
2021/03/13 07:17:48;;;;;;;;;;;7.60;99.90;;;;;;5025670;28;20375;-76
2021/03/13 07:20:14;;;;;;;1.77;1.10;;;7.50;99.90;;;;;;5028390;28;20364;-73
2021/03/13 07:22:40;;;;;;;1.60;0.90;;;7.60;99.90;;;;;;5027544;28;20678;-74
2021/03/13 07:25:08;;;;;;;5.57;1.40;;;7.60;99.90;;;;;;5032809;28;20091;-73
2021/03/13 07:27:40;;;;;;;1.97;1.20;;;7.60;99.90;;;;;;5027961;28;20030;-73
2021/03/13 07:30:10;;;;;;;2.03;1.00;;;7.70;99.90;;;;;;5031888;28;20033;-74
2021/03/13 07:32:40;;;;;;;2.10;1.00;;;7.80;99.90;;;;;;5026508;28;20029;-73
2021/03/13 07:35:09;;;;;;;2.17;1.10;;;7.80;99.90;;;;;;5032842;28;20026;-73
2021/03/13 07:37:39;;;;;;;1.90;1.00;;;7.90;99.90;;;;;;5032002;28;20025;-73
2021/03/13 07:40:07;;;;;;;7.80;1.30;;;7.90;99.90;;;;;;5032301;28;20028;-73
2021/03/13 07:42:35;;;;;;;3.77;1.20;;;7.90;99.90;;;;;;5033568;28;20516;-73
2021/03/13 07:45:01;;;;;;;2.73;1.07;;;8.00;99.90;;;;;;5031014;28;20355;-73
2021/03/13 07:47:28;;;;;;;2.50;1.10;;;8.00;99.90;;;;;;5029748;28;20115;-74
2021/03/13 07:49:53;;;;;;;3.07;1.30;;;8.10;99.90;;;;;;5032174;28;20018;-76
2021/03/13 07:52:19;;;;;;;3.23;1.00;;;8.20;99.90;;;;;;5031323;28;20749;-75
2021/03/13 07:54:48;;;;;;;2.70;1.10;;;8.20;99.90;;;;;;5031461;28;20585;-75
2021/03/13 07:57:16;;;;;;;2.43;1.00;;;8.20;99.90;;;;;;5028618;28;20133;-75
2021/03/13 07:59:44;;;;;;;2.57;1.20;;;8.20;99.90;;;;;;5010475;28;20029;-75
2021/03/13 08:02:28;;;;;;;2.07;1.00;;;8.40;99.90;;;;;;5028752;28;20034;-74
2021/03/13 08:04:56;;;;;;;5.53;1.27;;;8.40;99.90;;;;;;5031821;28;20108;-73
2021/03/13 08:07:23;;;;;;;2.60;1.17;;;8.30;99.90;;;;;;5033190;28;20026;-73
2021/03/13 08:09:48;;;;;;;2.27;1.17;;;8.40;99.90;;;;;;5014972;28;20080;-73
2021/03/13 08:12:39;;;;;;;1.57;0.90;;;8.40;99.90;;;;;;5029186;28;20421;-77
2021/03/13 08:15:29;;;;;;;3.50;1.00;;;8.60;99.70;;;;;;5030544;28;20140;-77
2021/03/13 08:17:55;;;;;;;2.53;1.17;;;8.50;99.20;;;;;;5026611;28;20025;-77
2021/03/13 08:20:29;;;;;;;5.47;1.23;;;8.60;98.50;;;;;;5031264;28;20289;-75
2021/03/13 08:23:13;;;;;;;4.00;1.10;;;8.70;98.10;;;;;;5010323;28;20032;-74
2021/03/13 08:25:59;;;;;;;1.57;0.90;;;8.70;97.60;;;;;;5030946;28;20033;-77
2021/03/13 08:28:57;;;;;;;2.58;1.00;;;8.70;98.70;;;;;;5028331;28;20103;-77
2021/03/13 08:31:22;;;;;;;2.13;1.03;;;8.80;97.90;;;;;;5001940;28;20037;-77
2021/03/13 08:34:12;;;;;;;2.33;1.20;;;8.80;97.70;;;;;;5028185;28;20410;-77
2021/03/13 08:36:47;;;;;;;1.80;1.00;;;8.80;97.20;;;;;;5008118;28;20123;-73
2021/03/13 08:39:14;;;;;;;3.63;1.02;;;8.80;97.50;;;;;;5029834;28;20062;-75
2021/03/13 08:41:45;;;;;;;1.90;1.10;;;8.80;97.90;;;;;;5028624;28;20036;-76
2021/03/13 08:44:25;;;;;;;4.10;1.13;;;8.80;98.60;;;;;;5029948;28;20030;-73
2021/03/13 08:47:03;;;;;;;2.73;0.90;;;8.90;97.70;;;;;;5028986;28;20026;-75
2021/03/13 08:49:29;;;;;;;3.40;1.33;;;9.00;97.60;;;;;;5029598;28;20033;-75
2021/03/13 08:52:10;;;;;;;1.30;1.03;;;9.00;97.60;;;;;;5030145;28;20029;-75
2021/03/13 08:54:44;;;;;;;1.53;1.10;;;9.00;96.80;;;;;;5029927;28;20075;-75
2021/03/13 08:57:13;;;;;;;2.42;1.17;;;9.00;97.10;;;;;;5030605;28;20539;-75
2021/03/13 08:59:44;;;;;;;2.63;1.03;;;9.10;96.40;;;;;;5007374;28;20073;-75
2021/03/13 09:02:14;;;;;;;2.90;1.10;;;9.10;96.20;;;;;;5023786;28;20682;-75
2021/03/13 09:04:43;;;;;;;2.97;1.17;;;9.20;95.10;;;;;;5030401;28;20924;-75
2021/03/13 09:07:10;;;;;;;2.90;1.10;;;9.20;94.70;;;;;;5025999;28;20106;-75
2021/03/13 09:09:38;;;;;;;3.93;1.10;;;9.30;94.10;;;;;;5028621;28;20182;-75
2021/03/13 09:12:06;;;;;;;2.90;1.13;;;9.40;93.80;;;;;;5029771;28;20041;-75
2021/03/13 09:14:33;;;;;;;1.13;0.90;;;9.40;94.50;;;;;;5008817;28;20120;-75
2021/03/13 09:17:11;;;;;;;2.63;1.20;;;9.50;93.20;;;;;;5010780;28;20037;-75
2021/03/13 09:19:37;;;;;;;0.80;0.80;;;9.60;92.60;;;;;;5009063;28;20374;-75
2021/03/13 09:22:15;;;;;;;3.07;0.97;;;9.60;92.10;;;;;;5025217;28;20060;-76
2021/03/13 09:24:41;;;;;;;1.40;1.00;;;9.70;91.50;;;;;;5028308;28;20033;-75
2021/03/13 09:27:08;;;;;;;5.33;1.17;;;9.70;90.90;;;;;;5024033;28;20049;-75
2021/03/13 09:29:34;;;;;;;1.53;1.00;;;9.80;89.50;;;;;;5027095;28;20062;-75
2021/03/13 09:32:09;;;;;;;2.67;1.10;;;9.80;89.00;;;;;;5011553;28;20499;-76
2021/03/13 09:34:42;;;;;;;2.90;1.00;;;9.80;89.60;;;;;;5012543;28;20399;-75
2021/03/13 09:37:13;;;;;;;1.77;1.00;;;9.80;89.50;;;;;;5026831;28;20032;-76
2021/03/13 09:39:41;;;;;;;3.23;1.10;;;9.80;89.90;;;;;;5009213;28;20029;-75
2021/03/13 09:42:10;;;;;;;1.63;0.97;;;9.90;89.10;;;;;;5029491;28;20033;-75
2021/03/13 09:44:38;;;;;;;2.53;1.33;;;9.80;87.10;;;;;;5027049;28;20029;-82
2021/03/13 09:47:28;;;;;;;3.80;1.10;;;9.80;88.70;;;;;;5023095;28;20127;-85
2021/03/13 09:49:58;;;;;;;2.67;1.50;;;9.70;90.00;;;;;;5008670;28;20052;-91
2021/03/13 09:52:30;;;;;;;2.63;1.00;;;9.80;88.90;;;;;;5032146;28;20056;-80
2021/03/13 09:54:59;;;;;;;6.00;1.40;;;10.00;86.10;;;;;;5031582;28;20029;-80
2021/03/13 09:57:25;;;;;;;2.00;1.03;;;10.00;86.00;;;;;;5027894;28;20034;-79
2021/03/13 09:59:51;;;;;;;3.63;1.20;;;10.10;86.30;;;;;;5029272;28;20029;-80
2021/03/13 10:02:17;;;;;;;2.23;1.10;;;10.20;86.00;;;;;;5012705;28;20048;-78
2021/03/13 10:04:43;;;;;;;5.10;1.20;;;10.40;84.70;;;;;;5012592;28;20616;-78
2021/03/13 10:07:08;;;;;;;2.33;1.10;;;10.50;84.80;;;;;;5025748;28;20037;-78
2021/03/13 10:09:50;;;;;;;4.10;1.00;;;10.60;85.10;;;;;;5025062;28;20070;-78
2021/03/13 10:12:26;;;;;;;2.30;1.30;;;10.60;82.80;;;;;;5027157;28;20033;-78
2021/03/13 10:14:52;;;;;;;5.23;1.10;;;10.70;82.00;;;;;;5028450;28;20079;-78
2021/03/13 10:17:17;;;;;;;2.97;1.10;;;10.70;80.20;;;;;;5014033;28;20642;-78
2021/03/13 10:19:44;;;;;;;2.60;1.00;;;10.70;81.10;;;;;;5008186;28;20029;-78
2021/03/13 10:22:18;;;;;;;3.67;1.00;;;10.70;82.30;;;;;;5023263;28;20022;-78
2021/03/13 10:24:49;;;;;;;2.60;1.20;;;10.70;82.00;;;;;;5026519;28;20030;-79
2021/03/13 10:27:26;;;;;;;1.87;0.90;;;10.70;82.20;;;;;;5026725;28;20115;-78
2021/03/13 10:30:01;;;;;;;3.63;1.33;;;10.80;82.00;;;;;;5024764;28;20084;-78
2021/03/13 10:32:31;;;;;;;4.07;1.20;;;10.80;82.40;;;;;;5008028;28;20033;-78
2021/03/13 10:35:28;;;;;;;2.23;1.13;;;10.90;81.90;;;;;;5026389;28;20021;-78
2021/03/13 10:38:10;;;;;;;5.23;1.20;;;10.90;80.40;;;;;;5009356;28;20386;-79
2021/03/13 10:40:40;;;;;;;2.03;1.37;;;10.90;80.50;;;;;;5013024;28;20052;-78
2021/03/13 10:43:18;;;;;;;2.50;0.93;;;10.90;82.40;;;;;;5027284;28;20454;-79
2021/03/13 10:45:46;;;;;;;3.27;1.30;;;11.00;80.90;;;;;;5026732;28;20072;-78
2021/03/13 10:48:12;;;;;;;3.83;1.40;;;11.00;80.60;;;;;;5026465;28;20828;-78
2021/03/13 10:50:42;;;;;;;2.07;1.00;;;10.90;81.80;;;;;;5026454;28;20769;-76
2021/03/13 10:53:31;;;;;;;2.00;1.00;;;11.00;79.90;;;;;;5028347;28;20030;-77
2021/03/13 10:55:59;;;;;;;2.17;1.00;;;11.10;79.40;;;;;;5026029;28;20026;-75
2021/03/13 10:58:51;;;;;;;1.93;1.00;;;11.10;79.50;;;;;;5022627;28;20026;-73
2021/03/13 11:01:19;;;;;;;1.83;1.17;;;11.10;78.80;;;;;;5031027;28;20330;-74
2021/03/13 11:03:46;;;;;;;2.23;1.43;;;11.20;79.00;;;;;;5028012;28;20029;-73
2021/03/13 11:06:13;;;;;;;3.73;1.50;;;11.20;80.10;;;;;;5014032;28;20026;-73
2021/03/13 11:08:39;;;;;;;2.07;1.10;;;11.30;80.30;;;;;;5031221;28;20021;-74
2021/03/13 11:11:05;;;;;;;2.30;1.10;;;11.50;78.20;;;;;;5029309;28;20140;-73
2021/03/13 11:13:31;;;;;;;2.07;1.00;;;11.40;78.60;;;;;;5029258;28;20030;-74
2021/03/13 11:15:57;;;;;;;3.70;1.67;;;11.60;79.20;;;;;;5003110;28;20053;-74
2021/03/13 11:18:23;;;;;;;5.00;1.20;;;11.50;78.20;;;;;;5004578;28;20367;-75
2021/03/13 11:20:48;;;;;;;2.67;1.00;;;11.60;77.80;;;;;;5000650;28;20022;-74
2021/03/13 11:23:15;;;;;;;3.43;1.10;;;11.60;78.20;;;;;;5006719;28;20030;-74
2021/03/13 11:25:41;;;;;;;1.97;0.80;;;11.70;77.80;;;;;;5007955;28;20025;-74
2021/03/13 11:28:07;;;;;;;1.90;0.97;;;11.80;74.90;;;;;;5006921;28;20033;-78
2021/03/13 11:30:32;;;;;;;2.70;1.00;;;11.90;73.60;;;;;;5005582;28;20038;-80
2021/03/13 11:32:58;;;;;;;1.83;1.00;;;12.00;72.20;;;;;;5004512;28;20501;-80
2021/03/13 11:35:24;;;;;;;3.57;1.60;;;12.00;72.40;;;;;;5008453;28;20048;-79
2021/03/13 11:37:51;;;;;;;1.83;1.03;;;12.10;73.00;;;;;;5011127;28;20131;-80
2021/03/13 11:40:19;;;;;;;1.73;1.23;;;12.20;71.60;;;;;;5011335;28;20052;-80
2021/03/13 11:42:46;;;;;;;2.17;1.20;;;12.20;71.40;;;;;;5011200;28;20485;-80
2021/03/13 11:45:13;;;;;;;2.57;1.00;;;12.30;71.00;;;;;;5026197;28;20070;-80
2021/03/13 11:47:39;;;;;;;1.93;0.77;;;12.40;70.60;;;;;;5011741;28;20030;-79
2021/03/13 11:50:08;;;;;;;3.27;1.00;;;12.60;70.20;;;;;;5026730;28;20381;-78
2021/03/13 11:52:34;;;;;;;3.13;1.10;;;12.60;66.50;;;;;;5011666;28;20091;-78
2021/03/13 11:55:00;;;;;;;2.20;0.90;;;12.70;65.80;;;;;;5011984;28;20036;-80
2021/03/13 11:57:26;;;;;;;2.17;1.03;;;12.80;63.10;;;;;;5013248;28;20084;-81
2021/03/13 11:59:51;;;;;;;2.13;0.90;;;13.10;63.00;;;;;;5014580;28;20030;-81
2021/03/13 12:02:17;;;;;;;2.07;0.90;;;13.20;64.80;;;;;;5013792;28;20109;-79
2021/03/13 12:04:44;;;;;;;1.37;0.80;;;13.30;61.70;;;;;;5003435;28;20038;-78
2021/03/13 12:07:10;;;;;;;0.83;0.70;;;13.30;61.80;;;;;;5005623;28;20498;-80
2021/03/13 12:09:37;;;;;;;1.30;0.77;;;13.40;60.90;;;;;;5008856;28;20380;-81
2021/03/13 12:12:06;;;;;;;2.72;0.80;;;13.60;58.80;;;;;;5007455;28;20041;-80
2021/03/13 12:14:33;;;;;;;2.58;0.88;;;13.60;57.30;;;;;;5016467;28;20570;-80
2021/03/13 12:17:00;;;;;;;3.13;0.90;;;13.50;56.90;;;;;;5031715;28;20421;-80
2021/03/13 12:19:25;;;;;;;3.17;1.05;;;13.70;57.50;;;;;;5014543;28;20541;-80
2021/03/13 12:21:51;;;;;;;2.13;1.10;;;13.90;56.40;;;;;;5030362;28;20100;-80
2021/03/13 12:24:17;;;;;;;2.80;1.10;;;14.00;55.80;;;;;;5029038;28;20037;-81
2021/03/13 12:26:43;;;;;;;2.55;0.95;;;13.90;56.90;;;;;;5030955;28;20045;-80
2021/03/13 12:29:09;;;;;;;1.73;0.90;;;13.90;58.00;;;;;;5032179;28;20033;-80
2021/03/13 12:31:35;;;;;;;3.15;0.70;;;13.90;55.30;;;;;;5030206;28;20025;-80
2021/03/13 12:34:01;;;;;;;0.82;0.60;;;13.70;55.90;;;;;;5030411;28;20402;-80
2021/03/13 12:36:26;;;;;;;2.33;1.00;;;13.70;56.90;;;;;;5031673;28;20092;-81
2021/03/13 12:38:52;;;;;;;4.10;1.00;;;13.60;56.20;;;;;;5031161;28;20037;-80
2021/03/13 12:41:18;;;;;;;1.02;0.70;;;13.50;55.70;;;;;;5031065;28;20068;-80
2021/03/13 12:43:44;;;;;;;1.25;0.80;;;13.40;56.30;;;;;;5030651;28;20037;-81
2021/03/13 12:46:19;;;;;;;3.70;0.80;;;13.30;56.10;;;;;;5029737;28;20061;-80
2021/03/13 12:48:46;;;;;;;3.40;1.20;;;13.10;56.90;;;;;;5031493;28;20687;-80
2021/03/13 12:51:13;;;;;;;0.88;0.80;;;12.90;57.20;;;;;;5024173;28;20045;-79
2021/03/13 12:53:39;;;;;;;0.88;0.80;;;12.80;57.40;;;;;;5024614;28;20021;-76
2021/03/13 12:56:05;;;;;;;2.30;0.77;;;12.80;58.20;;;;;;5031728;28;20032;-76
2021/03/13 12:58:31;;;;;;;1.47;0.83;;;12.80;58.50;;;;;;5034469;28;20029;-76
2021/03/13 13:00:57;;;;;;;1.77;0.80;;;12.80;57.60;;;;;;5033287;28;20076;-76
2021/03/13 13:03:23;;;;;;;1.88;0.80;;;12.70;58.90;;;;;;5032851;28;20025;-80
2021/03/13 13:05:49;;;;;;;1.40;0.90;;;12.80;57.80;;;;;;5029293;28;20130;-80